createdAt,value
2023-03-17T00:03:31.476Z,67.10
2023-03-17T00:08:35.877Z,66.82
2023-03-17T00:13:38.657Z,66.78
2023-03-17T00:18:40.139Z,67.21
2023-03-17T00:23:46.023Z,67.29
2023-03-17T00:28:47.538Z,67.42
2023-03-17T00:33:52.347Z,67.05
2023-03-17T00:38:54.310Z,66.77
2023-03-17T00:43:55.794Z,67.70
2023-03-17T00:48:57.999Z,68.52
2023-03-17T00:53:59.493Z,68.03
2023-03-17T00:59:01.051Z,67.79
2023-03-17T01:04:02.621Z,67.70
2023-03-17T01:09:05.059Z,67.77
2023-03-17T01:14:06.724Z,68.24
2023-03-17T01:19:10.099Z,68.18
2023-03-17T01:24:12.001Z,68.48
2023-03-17T01:29:14.289Z,69.14
2023-03-17T01:34:15.937Z,70.13
2023-03-17T01:39:17.921Z,69.62
2023-03-17T01:44:19.480Z,69.00
2023-03-17T01:49:26.749Z,68.75
2023-03-17T01:54:40.079Z,68.99
2023-03-17T01:59:53.499Z,68.81
2023-03-17T02:04:55.430Z,68.92
2023-03-17T02:09:58.158Z,69.20
2023-03-17T02:14:59.642Z,69.99
2023-03-17T02:20:16.208Z,69.68
2023-03-17T02:25:20.085Z,69.31
2023-03-17T02:30:30.793Z,69.04
2023-03-17T02:35:32.958Z,69.12
2023-03-17T02:40:34.467Z,69.45
2023-03-17T02:45:36.902Z,69.42
2023-03-17T02:50:38.458Z,69.05
2023-03-17T02:55:39.999Z,69.64
2023-03-17T03:00:41.544Z,70.87
2023-03-17T03:05:43.359Z,71.77
2023-03-17T03:10:45.798Z,70.79
2023-03-17T03:15:47.821Z,70.23
2023-03-17T03:20:49.429Z,70.48
2023-03-17T03:25:51.507Z,72.37
2023-03-17T03:30:53.081Z,73.74
2023-03-17T03:35:54.631Z,70.53
2023-03-17T03:40:56.152Z,70.62
2023-03-17T03:45:57.735Z,71.39
2023-03-17T03:51:01.067Z,71.07
2023-03-17T03:56:02.922Z,71.52
2023-03-17T04:01:06.423Z,71.65
2023-03-17T04:06:08.277Z,70.86
2023-03-17T04:11:09.853Z,71.30
2023-03-17T04:16:11.710Z,71.63
2023-03-17T04:21:13.860Z,71.59
2023-03-17T04:26:17.377Z,71.95
2023-03-17T04:31:19.102Z,73.22
2023-03-17T04:36:23.896Z,72.50
2023-03-17T04:41:25.490Z,72.24
2023-03-17T04:46:27.473Z,72.01
2023-03-17T04:51:29.041Z,71.81
2023-03-17T04:56:31.956Z,72.40
2023-03-17T05:01:33.994Z,72.43
2023-03-17T05:06:36.057Z,72.47
2023-03-17T05:11:37.683Z,72.55
2023-03-17T05:16:39.257Z,72.18
2023-03-17T05:21:40.762Z,72.66
2023-03-17T05:26:42.249Z,73.40
2023-03-17T05:31:43.975Z,73.24
2023-03-17T05:36:46.476Z,73.47
2023-03-17T05:41:48.169Z,73.63
2023-03-17T05:46:49.642Z,73.30
2023-03-17T05:51:51.216Z,73.43
2023-03-17T05:56:52.812Z,74.52
2023-03-17T06:01:54.552Z,74.52
2023-03-17T06:06:56.066Z,74.24
2023-03-17T06:11:57.744Z,74.51
2023-03-17T06:16:59.249Z,73.54
2023-03-17T06:22:01.012Z,73.84
2023-03-17T06:27:02.814Z,73.53
2023-03-17T06:32:19.219Z,73.44
2023-03-17T06:37:22.655Z,73.27
2023-03-17T06:42:24.156Z,72.91
2023-03-17T06:47:26.127Z,72.33
2023-03-17T06:52:27.801Z,72.44
2023-03-17T06:57:29.448Z,72.68
2023-03-17T07:02:31.405Z,71.97
2023-03-17T07:07:35.520Z,71.75
2023-03-17T07:12:37.811Z,71.75
2023-03-17T07:17:39.583Z,71.60
2023-03-17T07:22:41.883Z,71.46
2023-03-17T07:27:43.640Z,71.07
2023-03-17T07:32:49.429Z,70.81
2023-03-17T07:37:50.959Z,71.33
2023-03-17T07:42:54.556Z,70.67
2023-03-17T07:47:56.099Z,70.54
2023-03-17T07:52:57.798Z,70.59
2023-03-17T07:58:00.057Z,70.44
2023-03-17T08:03:09.700Z,70.23
2023-03-17T08:08:13.226Z,70.35
2023-03-17T08:13:14.812Z,70.63
2023-03-17T08:18:16.291Z,70.00
2023-03-17T08:23:19.215Z,69.35
2023-03-17T08:28:21.086Z,68.70
2023-03-17T08:33:23.034Z,67.19
2023-03-17T08:38:24.620Z,66.75
2023-03-17T08:43:26.564Z,66.34
2023-03-17T08:48:28.600Z,65.74
2023-03-17T08:53:30.252Z,64.61
2023-03-17T08:58:31.989Z,63.93
2023-03-17T09:03:34.017Z,62.80
2023-03-17T09:08:40.559Z,61.32
2023-03-17T09:13:42.302Z,61.09
2023-03-17T09:18:46.144Z,59.19
2023-03-17T09:23:47.656Z,60.34
2023-03-17T09:28:49.550Z,59.05
2023-03-17T09:33:52.641Z,59.07
2023-03-17T09:38:54.353Z,58.26
2023-03-17T09:44:21.106Z,58.81
2023-03-17T09:49:29.330Z,57.59
2023-03-17T09:54:36.505Z,58.23
2023-03-17T09:59:45.996Z,57.60
2023-03-17T10:04:48.878Z,57.17
2023-03-17T10:10:02.923Z,55.85
2023-03-17T10:15:23.320Z,55.98
2023-03-17T10:20:28.652Z,55.91
2023-03-17T10:25:37.405Z,55.36
2023-03-17T10:30:39.874Z,54.67
2023-03-17T10:35:44.768Z,55.26
2023-03-17T10:40:56.477Z,54.15
2023-03-17T10:46:07.461Z,53.84
2023-03-17T10:51:11.412Z,54.01
2023-03-17T10:56:25.198Z,53.97
2023-03-17T11:01:34.252Z,53.91
2023-03-17T11:06:47.251Z,53.73
2023-03-17T11:11:59.140Z,52.81
2023-03-17T11:17:16.525Z,53.31
2023-03-17T11:22:34.936Z,52.64
2023-03-17T11:27:58.921Z,52.69
2023-03-17T11:33:22.366Z,53.37
2023-03-17T11:38:28.174Z,52.37
2023-03-17T11:44:06.567Z,52.06
2023-03-17T11:49:20.482Z,51.45
2023-03-17T11:54:40.055Z,51.42
2023-03-17T11:59:52.340Z,50.71
2023-03-17T12:05:06.387Z,50.26
2023-03-17T12:10:36.719Z,49.84
2023-03-17T12:15:45.591Z,48.99
2023-03-17T12:21:07.702Z,47.97
2023-03-17T12:26:14.591Z,47.88
2023-03-17T12:31:22.816Z,48.16
2023-03-17T12:36:25.179Z,47.71
2023-03-17T12:42:01.630Z,48.15
2023-03-17T12:47:28.026Z,46.89
2023-03-17T12:53:31.554Z,47.74
2023-03-17T12:58:42.506Z,46.59
2023-03-17T13:04:04.286Z,47.66
2023-03-17T13:09:30.313Z,47.16
2023-03-17T13:14:45.903Z,46.55
2023-03-17T13:20:07.680Z,46.14
2023-03-17T13:25:37.552Z,46.48
2023-03-17T13:30:39.482Z,45.95
2023-03-17T13:36:11.852Z,46.59
2023-03-17T13:41:40.631Z,45.92
2023-03-17T13:46:42.181Z,45.66
2023-03-17T13:51:59.424Z,45.98
2023-03-17T13:57:22.975Z,44.99
2023-03-17T14:02:29.355Z,45.59
2023-03-17T14:07:56.865Z,45.01
2023-03-17T14:13:37.051Z,45.67
2023-03-17T14:18:42.877Z,46.47
2023-03-17T14:23:57.154Z,45.72
2023-03-17T14:29:00.653Z,45.14
2023-03-17T14:34:02.371Z,45.08
2023-03-17T14:39:04.489Z,44.75
2023-03-17T14:44:09.063Z,45.21
2023-03-17T14:49:18.046Z,44.93
2023-03-17T14:54:23.293Z,45.27
2023-03-17T14:59:33.744Z,45.26
2023-03-17T15:04:35.489Z,45.44
2023-03-17T15:09:40.239Z,45.04
2023-03-17T15:14:43.621Z,46.03
2023-03-17T15:19:48.060Z,45.60
2023-03-17T15:25:38.256Z,45.96
2023-03-17T15:30:48.236Z,45.99
2023-03-17T15:35:51.112Z,45.98
2023-03-17T15:40:53.162Z,46.29
2023-03-17T15:46:02.049Z,46.30
2023-03-17T15:51:05.603Z,45.89
2023-03-17T15:56:19.040Z,46.54
2023-03-17T16:01:21.269Z,46.63
2023-03-17T16:06:24.435Z,46.15
2023-03-17T16:11:28.679Z,46.43
2023-03-17T16:16:42.801Z,46.89
2023-03-17T16:21:44.494Z,46.64
2023-03-17T16:26:46.360Z,46.84
2023-03-17T16:31:50.213Z,47.21
2023-03-17T16:36:51.714Z,46.96
2023-03-17T16:41:53.557Z,47.41
2023-03-17T16:46:55.155Z,47.91
2023-03-17T16:51:56.793Z,47.89
2023-03-17T16:56:58.593Z,48.21
2023-03-17T17:02:01.303Z,48.64
2023-03-17T17:07:03.015Z,48.82
2023-03-17T17:12:05.641Z,49.23
2023-03-17T17:17:07.172Z,49.59
2023-03-17T17:22:11.398Z,49.84
2023-03-17T17:27:12.906Z,50.01
2023-03-17T17:32:18.175Z,50.32
2023-03-17T17:37:19.693Z,50.48
2023-03-17T17:42:21.265Z,50.83
2023-03-17T17:47:23.233Z,50.81
2023-03-17T17:52:24.978Z,51.13
2023-03-17T17:57:27.142Z,51.26
2023-03-17T18:02:28.632Z,51.51
2023-03-17T18:07:30.216Z,51.78
2023-03-17T18:12:31.778Z,52.01
2023-03-17T18:17:33.926Z,52.03
2023-03-17T18:22:36.077Z,52.24
2023-03-17T18:27:38.651Z,52.43
2023-03-17T18:32:42.962Z,52.79
2023-03-17T18:37:45.337Z,52.96
2023-03-17T18:42:47.422Z,53.27
2023-03-17T18:47:49.013Z,53.24
2023-03-17T18:52:50.816Z,53.42
2023-03-17T18:57:54.573Z,53.35
2023-03-17T19:02:56.199Z,53.80
2023-03-17T19:07:57.820Z,53.87
2023-03-17T19:12:59.957Z,53.63
2023-03-17T19:18:01.724Z,53.82
2023-03-17T19:23:06.967Z,53.95
2023-03-17T19:28:08.961Z,54.18
2023-03-17T19:33:18.750Z,54.30
2023-03-17T19:38:20.636Z,54.45
2023-03-17T19:43:39.064Z,54.25
2023-03-17T19:48:41.995Z,54.47
2023-03-17T19:53:43.511Z,54.70
2023-03-17T19:58:47.332Z,54.79
2023-03-17T20:03:49.598Z,54.86
2023-03-17T20:08:51.234Z,55.44
2023-03-17T20:13:52.942Z,55.23
2023-03-17T20:18:54.582Z,55.33
2023-03-17T20:23:56.850Z,55.30
2023-03-17T20:28:58.353Z,55.64
2023-03-17T20:33:59.888Z,55.27
2023-03-17T20:39:01.409Z,55.33
2023-03-17T20:44:02.922Z,55.53
2023-03-17T20:49:05.692Z,55.47
2023-03-17T20:54:08.728Z,55.69
2023-03-17T20:59:11.955Z,55.71
2023-03-17T21:04:16.032Z,55.52
2023-03-17T21:09:17.897Z,55.85
2023-03-17T21:14:20.017Z,55.88
2023-03-17T21:19:22.736Z,55.72
2023-03-17T21:24:35.870Z,55.69
2023-03-17T21:29:38.418Z,55.81
2023-03-17T21:34:40.015Z,55.55
2023-03-17T21:39:41.501Z,55.38
2023-03-17T21:44:43.347Z,55.35
2023-03-17T21:49:44.922Z,55.35
2023-03-17T21:54:46.546Z,55.26
2023-03-17T21:59:48.251Z,55.11
2023-03-17T22:04:49.941Z,55.03
2023-03-17T22:09:57.014Z,55.22
2023-03-17T22:14:59.180Z,55.19
2023-03-17T22:20:00.802Z,55.36
2023-03-17T22:25:05.218Z,55.36
2023-03-17T22:30:07.631Z,55.33
2023-03-17T22:35:09.364Z,55.36
2023-03-17T22:40:11.668Z,55.44
2023-03-17T22:45:13.306Z,55.42
2023-03-17T22:50:15.261Z,55.36
2023-03-17T22:55:16.853Z,55.39
2023-03-17T23:00:26.126Z,55.41
2023-03-17T23:05:28.551Z,55.41
2023-03-17T23:10:33.683Z,55.53
2023-03-17T23:15:36.482Z,55.49
2023-03-17T23:20:40.017Z,55.42
2023-03-17T23:25:41.830Z,55.47
2023-03-17T23:30:45.799Z,55.54
2023-03-17T23:35:50.263Z,55.39
2023-03-17T23:40:57.822Z,55.29
2023-03-17T23:46:00.601Z,55.43
2023-03-17T23:51:03.228Z,55.23
2023-03-17T23:56:06.609Z,55.23
